Valley Springs, South Dakota
Current Conditions -  °F | °C
As of 4:14 PM on Saturday 25 Oct 2014 (Local Time) from KLYV Reporting Station
Clear Clear  
Wind Chill: 68°   Ceiling: Unl
Heat Index: 68°   Visibility: 10mi
Dew Point: 28°   Wind: 7mph
Humidity: 23%   Direction: 30°NNE
Pressure: 30.09"   Gusts: NA
Location:  43.58°N, 96.47°W
Report Text: KLYV 252114Z AUTO 03006KT 10SM CLR 20/M02 A3009 RMK AO2
Loading
Personal Weather Stations






























Interactive Weather Map New forecast layout! Learn more

10-Day Weather Forecast

Advertisements
Track Severe Weather on mobile